Time;durP1;ratioP1;P1;durP2;ratioP2;P2;SDS_P1;SDS_P2;PMS_P1;PMS_P2;Temp;Humidity;BMP_temperature;BMP_pressure;BME280_temperature;BME280_humidity;BME280_pressure;Samples;Min_cycle;Max_cycle;Signal;HPM_P1;HPM_P2
2021/12/11 00:01:48;;;;;;;23.83;4.45;;;;;;;7.91;64.17;100209.63;4903923;29;20032;-94
2021/12/11 00:04:17;;;;;;;15.07;3.60;;;;;;;8.00;64.20;100213.47;4900902;29;20056;-94
2021/12/11 00:06:52;;;;;;;18.98;6.15;;;;;;;8.04;64.72;100225.44;4901013;29;20495;-94
2021/12/11 00:09:28;;;;;;;20.67;4.18;;;;;;;8.01;64.35;100229.06;4899409;29;20036;-94
2021/12/11 00:12:00;;;;;;;18.88;3.97;;;;;;;7.99;64.41;100223.09;4900623;29;20491;-94
2021/12/11 00:14:29;;;;;;;14.05;3.80;;;;;;;8.02;64.40;100225.53;4900837;29;20119;-94
2021/12/11 00:16:54;;;;;;;14.75;4.07;;;;;;;8.00;64.87;100226.53;4918233;29;20024;-94
2021/12/11 00:19:28;;;;;;;17.80;4.50;;;;;;;8.15;63.87;100225.63;4918977;29;20043;-95
2021/12/11 00:22:01;;;;;;;18.75;3.88;;;;;;;8.19;64.01;100234.94;4907807;29;20020;-94
2021/12/11 00:24:30;;;;;;;14.05;3.70;;;;;;;8.20;63.87;100228.81;4900260;29;20017;-95
2021/12/11 00:27:05;;;;;;;15.48;3.42;;;;;;;8.19;63.44;100241.97;4900306;29;20432;-94
2021/12/11 00:29:32;;;;;;;20.88;3.55;;;;;;;8.14;63.10;100239.66;4900121;29;20112;-94
2021/12/11 00:32:03;;;;;;;26.77;4.75;;;;;;;8.06;63.25;100231.41;4900146;29;20034;-94
2021/12/11 00:34:29;;;;;;;15.70;4.32;;;;;;;8.07;64.21;100241.75;4899597;29;20032;-94
2021/12/11 00:37:01;;;;;;;15.48;5.35;;;;;;;8.08;64.65;100240.00;4908786;29;20039;-95
2021/12/11 00:39:27;;;;;;;25.23;5.55;;;;;;;8.07;64.08;100233.09;4919058;29;20486;-94
2021/12/11 00:41:56;;;;;;;19.23;3.95;;;;;;;7.99;64.29;100236.16;4919063;29;20031;-94
2021/12/11 00:44:33;;;;;;;23.35;4.85;;;;;;;8.04;64.46;100239.34;4919031;29;20024;-93
2021/12/11 00:47:17;;;;;;;17.98;4.40;;;;;;;8.13;64.29;100240.56;4918967;29;20533;-94
2021/12/11 00:49:47;;;;;;;17.90;4.97;;;;;;;8.14;64.26;100239.66;4918528;29;20115;-94
2021/12/11 00:52:13;;;;;;;18.48;5.13;;;;;;;8.12;64.57;100244.13;4917403;29;20056;-94
2021/12/11 00:54:42;;;;;;;19.63;4.50;;;;;;;8.16;64.55;100240.38;4918851;29;20427;-94
2021/12/11 00:57:13;;;;;;;19.73;4.15;;;;;;;8.15;64.34;100243.91;4918425;29;20028;-94
2021/12/11 00:59:39;;;;;;;19.70;4.13;;;;;;;8.16;64.42;100237.78;4918561;29;20031;-94
2021/12/11 01:02:05;;;;;;;20.08;4.18;;;;;;;8.21;64.20;100232.25;4918023;29;20067;-94
2021/12/11 01:04:41;;;;;;;13.32;3.17;;;;;;;8.23;64.46;100236.44;4918157;29;20028;-94
2021/12/11 01:07:20;;;;;;;19.08;3.83;;;;;;;8.25;64.14;100247.66;4908114;29;20021;-94
2021/12/11 01:09:56;;;;;;;19.65;3.70;;;;;;;8.29;64.02;100264.88;4899172;29;20028;-94
2021/12/11 01:12:24;;;;;;;95.88;23.67;;;;;;;8.32;64.62;100259.44;4899090;29;20056;-94
2021/12/11 01:15:00;;;;;;;126.30;32.13;;;;;;;8.36;64.35;100265.34;4899622;29;20348;-94
2021/12/11 01:17:37;;;;;;;18.83;5.40;;;;;;;8.39;64.00;100267.75;4899125;29;20084;-94
2021/12/11 01:20:15;;;;;;;35.45;6.22;;;;;;;8.38;64.16;100266.06;4898837;29;20025;-94
2021/12/11 01:22:42;;;;;;;135.18;48.60;;;;;;;8.41;64.18;100272.88;4914387;29;20048;-94
2021/12/11 01:25:27;;;;;;;15.30;3.42;;;;;;;8.40;64.54;100263.38;4917556;29;20450;-93
2021/12/11 01:27:59;;;;;;;129.25;28.75;;;;;;;8.44;64.22;100270.97;4918167;29;20117;-95
2021/12/11 01:30:37;;;;;;;94.72;35.28;;;;;;;8.36;65.01;100274.97;4916400;29;20124;-93
2021/12/11 01:33:04;;;;;;;40.55;10.15;;;;;;;8.48;64.44;100269.00;4918061;29;20024;-94
2021/12/11 01:35:31;;;;;;;118.65;33.88;;;;;;;8.55;64.50;100283.41;4916339;29;20048;-94
2021/12/11 01:38:06;;;;;;;20.73;3.80;;;;;;;8.59;64.48;100282.28;4898911;29;20032;-95
2021/12/11 01:40:32;;;;;;;18.13;3.75;;;;;;;8.60;64.05;100278.72;4898842;29;20028;-94
2021/12/11 01:43:04;;;;;;;16.45;3.25;;;;;;;8.64;64.41;100281.97;4898863;29;20040;-94
2021/12/11 01:45:31;;;;;;;15.95;2.85;;;;;;;8.72;64.48;100283.19;4898948;29;20361;-93
2021/12/11 01:47:57;;;;;;;18.77;3.45;;;;;;;8.73;64.56;100284.88;4898689;29;20037;-94
2021/12/11 01:50:44;;;;;;;18.50;3.63;;;;;;;8.74;64.64;100286.53;4899065;29;20091;-95
2021/12/11 01:53:21;;;;;;;15.40;2.97;;;;;;;8.78;64.29;100286.38;4917342;29;20483;-94
2021/12/11 01:55:54;;;;;;;13.60;2.80;;;;;;;8.85;64.39;100295.53;4918223;29;20039;-94
2021/12/11 01:58:27;;;;;;;95.68;32.83;;;;;;;8.72;64.27;100300.66;4916563;29;20020;-94
2021/12/11 02:01:02;;;;;;;8.80;3.00;;;;;;;8.70;65.13;100292.91;4918007;29;20043;-93
2021/12/11 02:03:31;;;;;;;15.35;2.40;;;;;;;8.93;64.43;100303.75;4917673;29;20024;-94
2021/12/11 02:05:57;;;;;;;11.15;2.40;;;;;;;8.91;64.46;100303.81;4913025;29;20024;-93
2021/12/11 02:08:29;;;;;;;21.50;3.40;;;;;;;8.98;64.11;100309.50;4898994;29;20383;-93
2021/12/11 02:10:54;;;;;;;;;;;;;;;9.04;64.56;100310.91;4899053;29;20072;-94
2021/12/11 02:13:36;;;;;;;18.27;3.55;;;;;;;9.02;63.86;100311.00;4898556;29;20290;-94
2021/12/11 02:16:03;;;;;;;;;;;;;;;9.12;64.00;100319.97;4908651;29;20036;-95
2021/12/11 02:18:36;;;;;;;13.70;3.08;;;;;;;9.12;64.28;100322.59;4917411;29;19911;-95
2021/12/11 02:21:11;;;;;;;17.60;4.30;;;;;;;9.15;64.27;100325.97;4916130;29;20036;-94
2021/12/11 02:23:37;;;;;;;15.90;2.90;;;;;;;9.22;63.92;100324.63;4916808;29;20082;-94
2021/12/11 02:26:08;;;;;;;16.13;2.78;;;;;;;9.21;64.84;100323.78;4917237;29;20024;-94
2021/12/11 02:28:43;;;;;;;23.98;3.05;;;;;;;9.27;64.42;100335.66;4916674;29;20050;-94
2021/12/11 02:31:32;;;;;;;18.23;3.58;;;;;;;9.33;63.98;100346.56;4915729;29;20513;-94
2021/12/11 02:34:10;;;;;;;22.95;3.05;;;;;;;9.36;63.85;100347.31;4917110;29;20024;-94
2021/12/11 02:36:53;;;;;;;16.67;3.47;;;;;;;9.36;63.99;100350.81;4917206;29;20482;-94
2021/12/11 02:39:48;;;;;;;17.27;3.35;;;;;;;9.41;64.12;100353.13;4917186;29;20036;-94
2021/12/11 02:42:35;;;;;;;15.82;2.75;;;;;;;9.41;63.93;100351.31;4916031;29;20047;-94
2021/12/11 02:45:16;;;;;;;11.95;2.83;;;;;;;9.40;63.78;100349.66;4918927;29;20012;-94
2021/12/11 02:48:21;;;;;;;23.17;3.67;;;;;;;9.50;63.50;100342.06;4920638;29;20040;-94
2021/12/11 02:50:53;;;;;;;19.83;3.28;;;;;;;9.50;63.84;100337.66;4921097;29;20453;-94
2021/12/11 02:53:34;;;;;;;16.25;3.33;;;;;;;9.52;63.69;100335.75;4922022;29;20422;-95
2021/12/11 02:56:17;;;;;;;20.33;3.90;;;;;;;9.58;63.91;100336.28;4901427;29;20025;-93
2021/12/11 02:58:47;;;;;;;13.10;3.08;;;;;;;9.47;64.03;100337.81;4907900;29;20051;-94
2021/12/11 03:01:23;;;;;;;16.15;3.08;;;;;;;9.59;64.41;100341.44;4920556;29;20035;-94
2021/12/11 03:03:56;;;;;;;19.98;3.20;;;;;;;9.64;63.66;100343.78;4920603;29;20024;-94
2021/12/11 03:06:25;;;;;;;20.75;3.35;;;;;;;9.65;63.54;100346.28;4920361;29;20024;-94
2021/12/11 03:08:54;;;;;;;16.77;3.92;;;;;;;9.70;63.43;100352.06;4920594;29;20490;-95
2021/12/11 03:11:23;;;;;;;11.38;2.70;;;;;;;9.75;63.70;100357.00;4919267;29;20036;-94
2021/12/11 03:13:50;;;;;;;17.80;3.85;;;;;;;9.74;63.47;100365.84;4912258;29;20040;-93
2021/12/11 03:16:29;;;;;;;17.98;3.35;;;;;;;9.75;63.79;100351.75;4901238;29;20547;-94
2021/12/11 03:18:56;;;;;;;26.58;3.60;;;;;;;9.76;62.81;100352.63;4901302;29;20032;-94
2021/12/11 03:21:22;;;;;;;14.98;2.83;;;;;;;9.75;63.01;100349.16;4901602;29;20028;-94
2021/12/11 03:23:48;;;;;;;19.45;2.78;;;;;;;9.71;63.60;100345.03;4901046;29;20039;-94
2021/12/11 03:26:14;;;;;;;20.98;3.33;;;;;;;9.77;63.54;100349.06;4901346;29;20518;-94
2021/12/11 03:28:39;;;;;;;23.17;4.13;;;;;;;9.76;63.66;100358.72;4904186;29;20127;-94
2021/12/11 03:31:07;;;;;;;400.10;158.60;;;;;;;9.76;63.43;100357.88;4918417;29;20497;-94
2021/12/11 03:33:38;;;;;;;15.15;4.30;;;;;;;9.75;63.70;100357.00;4918609;29;20024;-94
2021/12/11 03:36:06;;;;;;;14.07;2.63;;;;;;;9.77;63.39;100364.78;4901031;29;20042;-94
2021/12/11 03:38:32;;;;;;;12.85;2.47;;;;;;;9.80;63.45;100368.06;4901022;29;20044;-94
2021/12/11 03:40:58;;;;;;;12.75;2.10;;;;;;;9.83;63.52;100367.84;4901111;29;20037;-94
2021/12/11 03:43:27;;;;;;;16.20;2.60;;;;;;;9.79;63.69;100357.66;4901112;29;20035;-94
2021/12/11 03:45:55;;;;;;;20.15;3.47;;;;;;;9.85;63.69;100368.59;4900120;29;20525;-95
2021/12/11 03:48:31;;;;;;;15.93;3.63;;;;;;;9.86;63.41;100377.31;4901367;29;20115;-94
2021/12/11 03:50:58;;;;;;;19.80;3.53;;;;;;;9.86;63.82;100375.50;4899771;29;20054;-94
2021/12/11 03:53:25;;;;;;;11.18;2.47;;;;;;;9.89;63.54;100379.72;4901561;29;20112;-93
2021/12/11 03:55:58;;;;;;;17.17;3.10;;;;;;;9.87;63.48;100377.22;4900761;29;20037;-94
2021/12/11 03:58:24;;;;;;;21.58;2.80;;;;;;;9.84;63.70;100366.91;4901000;29;20085;-94
2021/12/11 04:01:18;;;;;;;24.40;3.88;;;;;;;9.89;63.74;100367.47;4900570;29;20032;-93
2021/12/11 04:03:47;;;;;;;17.55;3.45;;;;;;;9.91;63.25;100373.44;4900600;29;20149;-94
2021/12/11 04:06:13;;;;;;;20.88;3.28;;;;;;;9.96;63.30;100364.44;4900435;29;20041;-95
2021/12/11 04:08:41;;;;;;;15.05;3.00;;;;;;;9.95;63.67;100357.50;4908240;29;20031;-94
2021/12/11 04:11:15;;;;;;;17.50;3.47;;;;;;;9.93;63.36;100362.81;4919293;29;20028;-94
2021/12/11 04:13:41;;;;;;;14.25;2.78;;;;;;;9.99;63.84;100358.97;4919100;29;20398;-94
2021/12/11 04:16:09;;;;;;;16.33;3.08;;;;;;;9.99;63.32;100361.59;4919133;29;20029;-94
2021/12/11 04:18:35;;;;;;;16.10;3.35;;;;;;;9.95;63.43;100365.34;4919111;29;20050;-93
2021/12/11 04:21:01;;;;;;;14.15;2.85;;;;;;;10.00;63.38;100371.16;4919084;29;20032;-94
2021/12/11 04:23:26;;;;;;;18.55;3.08;;;;;;;10.03;63.54;100386.66;4910738;29;20028;-94
2021/12/11 04:25:55;;;;;;;15.27;2.65;;;;;;;10.04;63.41;100389.19;4908857;29;20091;-93
2021/12/11 04:28:26;;;;;;;18.58;2.90;;;;;;;10.01;63.64;100378.94;4918957;29;20032;-94
2021/12/11 04:31:02;;;;;;;15.35;2.70;;;;;;;10.04;63.71;100388.38;4918976;29;20034;-94
2021/12/11 04:33:28;;;;;;;11.73;2.90;;;;;;;10.00;63.82;100376.41;4919062;29;20087;-94
2021/12/11 04:35:54;;;;;;;21.85;3.65;;;;;;;10.01;63.53;100376.31;4919075;29;20036;-93
2021/12/11 04:38:19;;;;;;;11.57;2.83;;;;;;;10.06;63.44;100376.81;4918634;29;20016;-93
2021/12/11 04:40:50;;;;;;;16.33;2.60;;;;;;;10.02;63.70;100370.09;4917255;29;20179;-93
2021/12/11 04:43:19;;;;;;;10.30;2.60;;;;;;;10.01;63.64;100372.81;4916952;29;20111;-93
2021/12/11 04:45:50;;;;;;;7.03;1.80;;;;;;;9.99;63.37;100380.81;4918691;29;20034;-94
2021/12/11 04:48:29;;;;;;;11.48;2.55;;;;;;;10.00;63.58;100397.38;4918795;29;20036;-93
2021/12/11 05:05:06;;;;;;;12.13;2.38;;;;;;;10.02;63.90;100395.50;4890627;29;20116;-93
2021/12/11 05:07:43;;;;;;;17.73;2.92;;;;;;;10.02;64.03;100398.94;4899445;29;20673;-94
2021/12/11 05:10:26;;;;;;;18.60;3.60;;;;;;;10.02;63.94;100406.00;4899333;29;20024;-94
2021/12/11 05:12:55;;;;;;;14.98;2.30;;;;;;;10.02;64.03;100403.38;4899287;29;20035;-94
2021/12/11 05:15:24;;;;;;;471.02;120.30;;;;;;;10.04;64.04;100412.81;4899717;29;20033;-94
2021/12/11 05:17:51;;;;;;;545.10;128.63;;;;;;;10.04;63.58;100419.84;4899324;29;20622;-94
2021/12/11 05:20:19;;;;;;;12.23;2.75;;;;;;;10.02;64.03;100427.81;4899286;29;20040;-95
2021/12/11 05:22:45;;;;;;;11.93;2.70;;;;;;;10.06;63.78;100436.31;4900212;29;20043;-93
2021/12/11 05:25:13;;;;;;;16.20;3.10;;;;;;;10.06;64.37;100428.47;4910512;29;20021;-94
2021/12/11 05:27:40;;;;;;;8.70;2.15;;;;;;;10.10;64.32;100433.38;4898865;29;20039;-93
2021/12/11 05:30:10;;;;;;;14.18;3.28;;;;;;;10.15;64.20;100448.00;4899074;29;20081;-93
2021/12/11 05:32:36;;;;;;;24.60;3.30;;;;;;;10.13;63.48;100440.25;4898819;29;20163;-94
2021/12/11 05:35:04;;;;;;;14.30;2.25;;;;;;;10.18;63.60;100432.06;4898859;29;20395;-94
2021/12/11 05:37:29;;;;;;;21.83;3.80;;;;;;;10.18;63.86;100432.88;4898882;29;20028;-94
2021/12/11 05:39:55;;;;;;;14.65;2.50;;;;;;;10.25;63.66;100444.69;4901428;29;20043;-95
2021/12/11 05:42:20;;;;;;;16.63;4.18;;;;;;;10.27;63.47;100447.22;4917267;29;20104;-93
2021/12/11 05:44:46;;;;;;;13.98;2.75;;;;;;;10.28;63.69;100438.38;4917108;29;20550;-94
2021/12/11 05:47:12;;;;;;;12.88;3.10;;;;;;;10.30;63.63;100437.34;4917556;29;20039;-94
2021/12/11 05:49:39;;;;;;;13.00;3.30;;;;;;;10.35;63.59;100438.81;4912812;29;20043;-95
2021/12/11 05:52:07;;;;;;;17.23;2.88;;;;;;;10.36;63.75;100448.41;4898573;29;20029;-95
2021/12/11 05:54:33;;;;;;;15.73;2.85;;;;;;;10.35;63.74;100460.69;4898877;29;20036;-94
2021/12/11 05:57:04;;;;;;;14.15;2.75;;;;;;;10.38;63.59;100462.25;4898829;29;20475;-94
2021/12/11 05:59:30;;;;;;;12.23;2.65;;;;;;;10.38;63.55;100457.00;4907819;29;20063;-94
2021/12/11 06:02:07;;;;;;;23.10;3.55;;;;;;;10.39;63.75;100461.34;4917406;29;20059;-93
2021/12/11 06:04:36;;;;;;;15.45;2.38;;;;;;;10.41;63.73;100454.19;4916432;29;20438;-93
2021/12/11 06:07:05;;;;;;;17.38;4.10;;;;;;;10.41;63.48;100456.81;4917603;29;20059;-93
2021/12/11 06:09:31;;;;;;;12.95;3.22;;;;;;;10.40;63.54;100455.97;4917416;29;20067;-93
2021/12/11 06:12:06;;;;;;;20.30;3.08;;;;;;;10.43;63.62;100457.56;4917081;29;20103;-93
2021/12/11 06:14:33;;;;;;;20.48;4.55;;;;;;;10.42;63.90;100453.25;4904859;29;20080;-93
2021/12/11 06:17:00;;;;;;;14.07;3.10;;;;;;;10.44;64.09;100459.22;4898033;29;20035;-93
2021/12/11 06:19:27;;;;;;;14.15;3.78;;;;;;;10.45;63.66;100466.16;4898320;29;20025;-93
2021/12/11 06:21:54;;;;;;;12.82;3.00;;;;;;;10.44;63.80;100453.97;4898533;29;20383;-93
2021/12/11 06:24:21;;;;;;;11.05;2.47;;;;;;;10.45;63.75;100455.66;4898243;29;20024;-94
2021/12/11 06:26:47;;;;;;;13.10;2.80;;;;;;;10.44;63.92;100467.09;4898180;29;20029;-93
2021/12/11 06:29:13;;;;;;;9.43;2.38;;;;;;;10.41;63.85;100470.78;4899179;29;20025;-93
2021/12/11 06:31:38;;;;;;;14.85;3.03;;;;;;;10.41;63.78;100467.31;4898443;29;20035;-93
2021/12/11 06:34:05;;;;;;;10.98;2.67;;;;;;;10.39;63.66;100463.97;4897569;29;20071;-93
2021/12/11 06:36:30;;;;;;;12.57;2.90;;;;;;;10.31;63.64;100462.66;4897283;29;20364;-93
2021/12/11 06:39:01;;;;;;;11.55;2.75;;;;;;;10.26;63.59;100462.09;4897862;29;20036;-93
2021/12/11 06:41:36;;;;;;;9.45;2.53;;;;;;;10.24;63.30;100474.47;4897890;29;20024;-93
2021/12/11 06:44:03;;;;;;;13.05;3.03;;;;;;;10.15;63.08;100476.84;4905705;29;20025;-92
2021/12/11 06:46:30;;;;;;;13.43;2.55;;;;;;;10.08;63.19;100469.38;4915661;29;20020;-94
2021/12/11 06:48:56;;;;;;;16.45;3.10;;;;;;;10.11;63.46;100473.56;4916920;29;20616;-92
2021/12/11 06:51:21;;;;;;;22.40;4.07;;;;;;;10.04;63.34;100464.44;4916933;29;20039;-93
2021/12/11 06:53:51;;;;;;;15.32;4.13;;;;;;;10.02;63.26;100469.78;4916959;29;20032;-94
2021/12/11 06:56:20;;;;;;;11.75;2.40;;;;;;;10.02;63.00;100466.31;4916840;29;20036;-93
2021/12/11 06:58:46;;;;;;;11.98;3.35;;;;;;;9.98;63.39;100463.06;4908926;29;20077;-93
2021/12/11 07:01:12;;;;;;;12.27;3.13;;;;;;;9.96;63.32;100474.59;4898314;29;20119;-93
2021/12/11 07:03:39;;;;;;;13.77;3.05;;;;;;;9.92;63.52;100481.81;4897928;29;20127;-94
2021/12/11 07:06:04;;;;;;;12.88;3.38;;;;;;;9.94;64.00;100479.94;4898067;29;20044;-93
2021/12/11 07:08:31;;;;;;;13.70;3.10;;;;;;;9.92;63.77;100473.94;4897970;29;20048;-93
2021/12/11 07:10:59;;;;;;;11.30;2.65;;;;;;;9.90;63.70;100479.28;4897769;29;20111;-93
2021/12/11 07:13:24;;;;;;;19.27;3.05;;;;;;;9.88;64.01;100486.41;4898818;29;20562;-93
2021/12/11 07:15:52;;;;;;;13.32;3.05;;;;;;;9.91;64.11;100474.88;4897822;29;20020;-93
2021/12/11 07:18:18;;;;;;;15.30;3.25;;;;;;;9.86;64.13;100469.94;4898047;29;20029;-93
2021/12/11 07:20:43;;;;;;;11.95;2.90;;;;;;;9.81;64.50;100472.00;4897961;29;20055;-93
2021/12/11 07:23:09;;;;;;;14.07;3.13;;;;;;;9.92;64.20;100468.69;4896357;29;20479;-93
2021/12/11 07:25:44;;;;;;;16.05;3.55;;;;;;;9.93;64.13;100470.38;4897809;29;20093;-93
2021/12/11 07:28:11;;;;;;;14.63;3.55;;;;;;;9.96;64.33;100469.34;4900114;29;20025;-94
2021/12/11 07:30:41;;;;;;;11.50;2.67;;;;;;;9.99;64.25;100475.25;4923542;29;20056;-95
2021/12/11 07:33:07;;;;;;;19.58;3.40;;;;;;;10.01;64.22;100488.22;4915066;29;20040;-96
2021/12/11 07:35:34;;;;;;;13.45;3.35;;;;;;;10.02;64.41;100482.06;4904984;29;20032;-96
2021/12/11 07:38:00;;;;;;;11.73;3.63;;;;;;;10.03;64.41;100491.59;4913285;29;20047;-96
2021/12/11 07:40:29;;;;;;;17.80;3.25;;;;;;;10.12;65.04;100497.09;4906060;29;20024;-95
2021/12/11 07:42:55;;;;;;;14.80;3.42;;;;;;;10.20;64.40;100488.72;4916662;29;20040;-95
2021/12/11 07:45:22;;;;;;;17.30;3.78;;;;;;;10.19;64.41;100489.69;4926303;29;20036;-95
2021/12/11 07:47:48;;;;;;;8.70;3.33;;;;;;;10.18;64.57;100485.38;4921770;29;20471;-96
2021/12/11 07:50:14;;;;;;;15.10;3.75;;;;;;;10.14;64.29;100483.88;4918068;29;20047;-96
2021/12/11 07:52:40;;;;;;;18.73;4.18;;;;;;;10.15;64.34;100490.84;4899523;29;20032;-95
2021/12/11 07:55:06;;;;;;;9.63;3.08;;;;;;;10.19;64.04;100497.56;4901254;29;20539;-95
2021/12/11 07:57:31;;;;;;;9.77;2.92;;;;;;;10.18;64.04;100495.88;4909201;29;20041;-96
2021/12/11 07:59:57;;;;;;;10.85;3.00;;;;;;;10.19;64.50;100481.81;4913273;29;20384;-95
2021/12/11 08:02:22;;;;;;;16.08;3.58;;;;;;;10.20;64.29;100491.34;4913803;29;20016;-96
2021/12/11 08:04:48;;;;;;;10.77;3.90;;;;;;;10.19;64.31;100492.31;4919630;29;20056;-94
2021/12/11 08:07:13;;;;;;;9.25;2.60;;;;;;;10.24;64.54;100499.88;4916304;29;20047;-94
2021/12/11 08:09:39;;;;;;;12.65;2.55;;;;;;;10.25;64.43;100497.16;4913020;29;20111;-93
2021/12/11 08:12:05;;;;;;;12.18;3.20;;;;;;;10.24;64.28;100508.59;4909325;29;20047;-96
2021/12/11 08:14:31;;;;;;;10.05;3.20;;;;;;;10.26;64.49;100509.31;4914846;29;20124;-94
2021/12/11 08:16:58;;;;;;;11.45;2.78;;;;;;;10.26;64.53;100511.94;4915226;29;20033;-96
2021/12/11 08:19:27;;;;;;;10.88;3.20;;;;;;;10.31;64.66;100517.78;4905116;29;20562;-96
2021/12/11 08:21:55;;;;;;;9.25;3.15;;;;;;;10.33;64.25;100515.06;4908779;29;20051;-95
2021/12/11 08:24:22;;;;;;;14.00;3.05;;;;;;;10.33;64.41;100515.06;4919131;29;20115;-95
2021/12/11 08:26:50;;;;;;;12.73;2.67;;;;;;;10.41;64.28;100517.19;4908540;29;20052;-96
2021/12/11 08:29:18;;;;;;;16.75;2.83;;;;;;;10.44;64.31;100517.81;4921851;29;20119;-96
2021/12/11 08:31:47;;;;;;;10.35;2.90;;;;;;;10.52;64.26;100519.94;4905939;29;20036;-96
2021/12/11 08:34:12;;;;;;;16.75;3.38;;;;;;;10.54;64.49;100518.03;4907756;29;20049;-96
2021/12/11 08:36:38;;;;;;;10.50;2.50;;;;;;;10.64;64.59;100531.41;4919489;29;20020;-96
2021/12/11 08:39:08;;;;;;;11.93;2.30;;;;;;;10.64;64.37;100527.03;4925703;29;20032;-96
2021/12/11 08:41:34;;;;;;;13.88;3.15;;;;;;;10.62;64.00;100538.56;4913004;29;20032;-96
2021/12/11 08:44:06;;;;;;;10.52;2.90;;;;;;;10.65;64.04;100535.72;4909024;29;20060;-96
2021/12/11 08:46:33;;;;;;;13.23;2.63;;;;;;;10.65;63.73;100546.25;4912748;29;20025;-96
2021/12/11 08:49:05;;;;;;;338.75;115.95;;;;;;;10.71;63.52;100538.78;4940791;29;20032;-96
2021/12/11 08:51:48;;;;;;;572.42;145.35;;;;;;;10.76;64.00;100545.50;4944756;29;20008;-96
2021/12/11 08:54:15;;;;;;;10.82;2.35;;;;;;;10.79;64.10;100547.94;4935558;29;20135;-96
2021/12/11 08:56:41;;;;;;;12.48;2.72;;;;;;;10.82;64.38;100550.34;4930004;29;20020;-96
2021/12/11 08:59:11;;;;;;;13.45;3.60;;;;;;;10.88;65.13;100549.94;4916309;29;20122;-89
2021/12/11 09:02:06;;;;;;;13.48;3.00;;;;;;;10.97;63.85;100557.22;4911033;29;20036;-95
2021/12/11 09:04:43;;;;;;;13.63;3.10;;;;;;;11.02;62.98;100560.38;4901265;29;20071;-94
2021/12/11 09:07:24;;;;;;;17.92;3.03;;;;;;;11.14;63.49;100568.38;4910405;29;20375;-96
2021/12/11 09:09:56;;;;;;;12.13;2.63;;;;;;;11.13;62.75;100574.59;4908983;29;20036;-96
2021/12/11 09:12:28;;;;;;;263.60;65.05;;;;;;;11.12;62.90;100576.38;4917299;29;20091;-96
2021/12/11 09:15:09;;;;;;;19.67;3.20;;;;;;;11.17;62.84;100586.56;4908464;29;20162;-95
2021/12/11 09:17:47;;;;;;;12.10;2.60;;;;;;;11.20;62.98;100583.75;4905851;29;20034;-96
2021/12/11 09:20:38;;;;;;;16.73;2.90;;;;;;;11.25;62.93;100579.00;4914612;29;20060;-96
2021/12/11 09:23:12;;;;;;;14.15;3.17;;;;;;;11.23;61.93;100588.78;4906706;29;20035;-96
2021/12/11 09:25:48;;;;;;;15.55;3.60;;;;;;;11.34;62.50;100591.53;4910953;29;20127;-96
2021/12/11 09:28:24;;;;;;;9.98;2.63;;;;;;;11.34;62.48;100588.91;4920893;29;20032;-96
2021/12/11 09:30:59;;;;;;;17.88;3.25;;;;;;;11.48;62.27;100594.03;4905017;29;20032;-95
2021/12/11 09:33:32;;;;;;;11.20;2.70;;;;;;;11.44;61.92;100595.19;4909211;29;20012;-95
2021/12/11 09:36:06;;;;;;;23.00;3.58;;;;;;;11.48;62.10;100594.03;4918775;29;20042;-95
2021/12/11 09:38:41;;;;;;;18.48;2.80;;;;;;;11.44;61.89;100597.00;4909779;29;20518;-95
2021/12/11 09:41:22;;;;;;;164.65;44.80;;;;;;;11.43;62.13;100596.16;4907389;29;20483;-94
2021/12/11 09:43:56;;;;;;;8.70;2.30;;;;;;;11.43;62.65;100596.16;4908903;29;20040;-96
2021/12/11 09:46:38;;;;;;;11.93;2.75;;;;;;;11.43;62.55;100598.78;4912387;29;20028;-96
2021/12/11 09:49:06;;;;;;;10.05;1.80;;;;;;;11.48;62.71;100593.22;4916110;29;20126;-96
2021/12/11 09:51:36;;;;;;;17.38;4.93;;;;;;;11.45;62.63;100588.16;4909640;29;20070;-94
2021/12/11 09:54:07;;;;;;;10.10;2.80;;;;;;;11.52;62.71;100595.50;4910096;29;20068;-96
2021/12/11 09:56:41;;;;;;;14.15;3.30;;;;;;;11.50;62.49;100589.53;4913551;29;20566;-96
2021/12/11 09:59:09;;;;;;;19.17;2.70;;;;;;;11.55;62.73;100588.34;4915607;29;20127;-96
2021/12/11 10:01:40;;;;;;;150.43;47.92;;;;;;;11.62;63.00;100592.25;4905655;29;20036;-95
2021/12/11 10:04:21;;;;;;;64.85;25.85;;;;;;;11.69;62.44;100591.72;4904700;29;20534;-93
2021/12/11 10:07:23;;;;;;;158.35;37.42;;;;;;;11.78;61.60;100595.50;4909974;29;20033;-95
2021/12/11 10:09:46;;;;;;;123.43;38.58;;;;;;;11.79;61.50;100586.66;4915989;29;20054;-96
2021/12/11 10:12:19;;;;;;;514.30;158.50;;;;;;;11.96;62.03;100588.13;4922114;29;20032;-96
2021/12/11 10:14:50;;;;;;;16.70;3.25;;;;;;;11.97;61.16;100589.81;4903239;29;20087;-92
2021/12/11 10:17:23;;;;;;;10.55;3.42;;;;;;;12.09;61.21;100591.56;4907784;29;20499;-92
2021/12/11 10:19:51;;;;;;;18.33;2.83;;;;;;;12.25;60.80;100591.31;4906819;29;20096;-92
2021/12/11 10:22:22;;;;;;;21.70;3.05;;;;;;;12.18;60.67;100591.84;4903052;29;20132;-93
2021/12/11 10:24:50;;;;;;;19.15;2.80;;;;;;;12.28;60.02;100588.47;4914275;29;20024;-95
2021/12/11 10:27:28;;;;;;;231.52;75.78;;;;;;;12.30;60.24;100591.84;4909194;29;20042;-93
2021/12/11 10:29:55;;;;;;;11.77;2.50;;;;;;;12.35;60.26;100588.84;4901864;29;20471;-93
2021/12/11 10:32:27;;;;;;;14.27;3.25;;;;;;;12.34;59.60;100597.69;4908979;29;20511;-92
2021/12/11 10:34:57;;;;;;;17.50;2.80;;;;;;;12.48;60.23;100594.91;4900200;29;20048;-94
2021/12/11 10:37:28;;;;;;;188.32;53.83;;;;;;;12.48;59.78;100602.00;4909040;29;20051;-89
2021/12/11 10:39:57;;;;;;;15.38;2.55;;;;;;;12.51;59.96;100599.13;4905581;29;20058;-91
2021/12/11 10:42:23;;;;;;;157.30;52.35;;;;;;;12.54;59.79;100604.16;4902552;29;20032;-93
2021/12/11 10:44:53;;;;;;;16.30;3.38;;;;;;;12.62;59.74;100599.19;4899278;29;20032;-88
2021/12/11 10:47:23;;;;;;;125.45;27.45;;;;;;;12.66;59.30;100591.91;4908956;29;20032;-90
2021/12/11 10:49:50;;;;;;;337.55;110.22;;;;;;;12.92;58.43;100589.94;4902812;29;20091;-94
2021/12/11 10:52:21;;;;;;;15.82;3.15;;;;;;;12.91;58.82;100588.25;4913235;29;20550;-94
2021/12/11 10:54:48;;;;;;;168.15;62.45;;;;;;;12.93;58.95;100580.25;4909058;29;20028;-94
2021/12/11 10:57:15;;;;;;;616.03;197.27;;;;;;;13.01;58.76;100578.72;4909167;29;20028;-93
2021/12/11 10:59:42;;;;;;;17.50;3.47;;;;;;;13.00;58.33;100579.66;4907108;29;20040;-93
2021/12/11 11:02:18;;;;;;;16.70;3.92;;;;;;;13.05;59.16;100582.81;4906305;29;20084;-93
2021/12/11 11:04:51;;;;;;;126.97;28.25;;;;;;;13.14;58.49;100577.78;4911203;29;20052;-95
2021/12/11 11:07:17;;;;;;;584.42;195.10;;;;;;;13.26;57.99;100568.94;4912411;29;20033;-95
2021/12/11 11:09:44;;;;;;;15.10;2.90;;;;;;;13.37;58.07;100570.78;4914616;29;20044;-94
2021/12/11 11:12:14;;;;;;;595.78;213.27;;;;;;;13.37;58.39;100571.63;4911463;29;20032;-94
2021/12/11 11:14:41;;;;;;;634.65;191.38;;;;;;;13.41;58.79;100573.06;4909223;29;20492;-94
2021/12/11 11:17:14;;;;;;;642.33;189.32;;;;;;;13.51;57.78;100569.69;4912163;29;20054;-95
2021/12/11 11:19:40;;;;;;;618.85;176.45;;;;;;;13.63;58.07;100563.50;4913840;29;20530;-93
2021/12/11 11:22:10;;;;;;;627.70;180.45;;;;;;;13.83;57.52;100554.84;4920986;29;20036;-93
2021/12/11 11:24:46;;;;;;;619.13;180.02;;;;;;;13.87;57.03;100555.44;4901093;29;20120;-93
2021/12/11 11:27:12;;;;;;;616.60;182.57;;;;;;;14.06;56.57;100557.47;4902754;29;20091;-93
2021/12/11 11:29:41;;;;;;;610.10;170.43;;;;;;;13.90;57.00;100552.53;4918229;29;20431;-93
2021/12/11 11:32:14;;;;;;;611.00;175.40;;;;;;;14.02;56.94;100553.34;4919025;29;20028;-93
2021/12/11 11:34:41;;;;;;;614.22;182.25;;;;;;;14.04;56.32;100551.44;4920297;29;20036;-93
2021/12/11 11:37:15;;;;;;;615.85;184.23;;;;;;;14.18;56.77;100561.75;4915059;29;20028;-91
2021/12/11 11:39:42;;;;;;;16.15;1.83;;;;;;;14.17;56.45;100553.94;4911527;29;20087;-92
2021/12/11 11:42:12;;;;;;;12.63;2.75;;;;;;;13.89;57.13;100546.41;4910172;29;20029;-93
2021/12/11 11:44:41;;;;;;;19.08;3.22;;;;;;;14.36;55.92;100542.72;4913703;29;20052;-93
2021/12/11 11:47:07;;;;;;;12.82;2.10;;;;;;;14.43;56.28;100534.16;4910610;29;20087;-95
2021/12/11 11:49:33;;;;;;;17.40;3.15;;;;;;;14.59;56.30;100538.22;4908882;29;20164;-94